createdAt,value
2022-07-30T00:00:50.994Z,25.73
2022-07-30T00:03:18.165Z,25.71
2022-07-30T00:05:45.183Z,25.63
2022-07-30T00:08:12.065Z,25.60
2022-07-30T00:10:39.623Z,25.67
2022-07-30T00:13:07.397Z,25.63
2022-07-30T00:15:34.654Z,25.60
2022-07-30T00:18:01.755Z,25.57
2022-07-30T00:20:28.953Z,25.52
2022-07-30T00:22:56.498Z,25.41
2022-07-30T00:25:23.872Z,25.33
2022-07-30T00:27:50.814Z,25.25
2022-07-30T00:30:17.846Z,25.20
2022-07-30T00:32:44.897Z,25.22
2022-07-30T00:35:14.013Z,25.12
2022-07-30T00:37:41.053Z,25.01
2022-07-30T00:40:09.952Z,24.83
2022-07-30T00:42:43.047Z,24.72
2022-07-30T00:45:11.625Z,24.57
2022-07-30T00:47:39.760Z,24.51
2022-07-30T00:50:09.490Z,24.31
2022-07-30T00:52:38.630Z,24.33
2022-07-30T00:55:07.681Z,24.33
2022-07-30T00:57:35.840Z,24.24
2022-07-30T01:00:04.737Z,24.20
2022-07-30T01:02:32.076Z,24.09
2022-07-30T01:04:59.031Z,24.09
2022-07-30T01:07:27.131Z,24.03
2022-07-30T01:09:54.483Z,23.59
2022-07-30T01:12:25.353Z,23.02
2022-07-30T01:14:54.199Z,22.99
2022-07-30T01:17:21.189Z,22.91
2022-07-30T01:19:53.592Z,22.85
2022-07-30T01:22:30.283Z,22.64
2022-07-30T01:25:04.296Z,22.62
2022-07-30T01:28:06.321Z,22.69
2022-07-30T01:30:38.882Z,22.76
2022-07-30T01:33:09.075Z,22.74
2022-07-30T01:35:37.669Z,22.82
2022-07-30T01:38:06.879Z,22.90
2022-07-30T01:40:36.750Z,22.76
2022-07-30T01:43:05.440Z,22.47
2022-07-30T01:45:44.233Z,22.49
2022-07-30T01:48:15.038Z,22.53
2022-07-30T01:50:47.843Z,22.58
2022-07-30T01:53:19.396Z,22.67
2022-07-30T01:55:48.000Z,22.76
2022-07-30T01:58:20.614Z,22.72
2022-07-30T02:00:54.893Z,22.76
2022-07-30T02:03:22.806Z,22.88
2022-07-30T02:05:57.378Z,22.88
2022-07-30T02:08:36.469Z,22.87
2022-07-30T02:11:15.361Z,22.94
2022-07-30T02:13:47.723Z,23.00
2022-07-30T02:16:27.409Z,23.02
2022-07-30T02:19:04.509Z,23.03
2022-07-30T02:21:50.328Z,22.96
2022-07-30T02:24:24.211Z,22.91
2022-07-30T02:26:56.789Z,22.91
2022-07-30T02:29:26.001Z,22.91
2022-07-30T02:31:56.682Z,22.86
2022-07-30T02:34:25.435Z,22.83
2022-07-30T02:36:54.810Z,22.84
2022-07-30T02:39:23.401Z,22.87
2022-07-30T02:41:52.460Z,22.90
2022-07-30T02:44:21.194Z,22.85
2022-07-30T02:46:50.566Z,22.80
2022-07-30T02:49:21.514Z,22.80
2022-07-30T02:51:51.052Z,22.78
2022-07-30T02:54:20.555Z,22.82
2022-07-30T02:56:49.761Z,22.85
2022-07-30T02:59:20.162Z,22.82
2022-07-30T03:01:49.190Z,22.76
2022-07-30T03:04:20.938Z,22.80
2022-07-30T03:06:48.787Z,22.82
2022-07-30T03:09:17.588Z,22.83
2022-07-30T03:11:46.495Z,22.82
2022-07-30T03:14:13.533Z,22.88
2022-07-30T03:16:47.360Z,22.87
2022-07-30T03:19:20.521Z,22.91
2022-07-30T03:21:50.440Z,22.91
2022-07-30T03:24:19.450Z,22.89
2022-07-30T03:26:48.160Z,22.86
2022-07-30T03:29:21.744Z,22.80
2022-07-30T03:31:50.208Z,22.65
2022-07-30T03:34:19.201Z,22.74
2022-07-30T03:36:47.746Z,22.79
2022-07-30T03:39:15.551Z,22.79
2022-07-30T03:41:43.839Z,22.83
2022-07-30T03:44:15.568Z,22.85
2022-07-30T03:46:43.858Z,22.69
2022-07-30T03:49:12.133Z,22.56
2022-07-30T03:51:44.001Z,22.43
2022-07-30T03:54:13.701Z,22.25
2022-07-30T03:56:41.203Z,21.93
2022-07-30T03:59:14.364Z,21.79
2022-07-30T04:01:41.788Z,21.70
2022-07-30T04:04:31.923Z,21.88
2022-07-30T04:07:00.230Z,21.70
2022-07-30T04:09:27.601Z,21.70
2022-07-30T04:11:54.661Z,21.74
2022-07-30T04:14:27.030Z,21.70
2022-07-30T04:17:04.889Z,21.64
2022-07-30T04:19:36.081Z,21.68
2022-07-30T04:22:04.894Z,21.76
2022-07-30T04:24:35.600Z,21.91
2022-07-30T04:27:04.203Z,21.98
2022-07-30T04:29:31.369Z,22.00
2022-07-30T04:31:58.784Z,22.01
2022-07-30T04:34:34.585Z,21.96
2022-07-30T04:37:03.615Z,21.99
2022-07-30T04:39:31.057Z,21.98
2022-07-30T04:41:58.159Z,22.01
2022-07-30T04:44:36.118Z,22.00
2022-07-30T04:47:26.528Z,21.99
2022-07-30T04:50:14.365Z,22.03
2022-07-30T04:52:43.925Z,22.07
2022-07-30T04:55:14.165Z,22.20
2022-07-30T04:57:43.684Z,22.28
2022-07-30T05:00:11.450Z,22.20
2022-07-30T05:02:41.534Z,22.26
2022-07-30T05:05:12.052Z,22.25
2022-07-30T05:07:40.154Z,22.26
2022-07-30T05:10:09.337Z,22.30
2022-07-30T05:12:40.216Z,22.31
2022-07-30T05:15:09.436Z,22.38
2022-07-30T05:17:37.359Z,22.32
2022-07-30T05:20:07.355Z,22.23
2022-07-30T05:23:04.056Z,22.18
2022-07-30T05:25:31.605Z,22.20
2022-07-30T05:28:11.382Z,22.15
2022-07-30T05:30:38.600Z,22.14
2022-07-30T05:33:15.489Z,22.25
2022-07-30T05:35:43.779Z,22.33
2022-07-30T05:38:10.941Z,22.38
2022-07-30T05:40:50.714Z,22.46
2022-07-30T05:43:55.693Z,22.47
2022-07-30T05:46:24.305Z,22.50
2022-07-30T05:48:51.617Z,22.48
2022-07-30T05:51:21.178Z,22.46
2022-07-30T05:53:49.631Z,22.51
2022-07-30T05:56:42.472Z,22.50
2022-07-30T05:59:31.503Z,22.53
2022-07-30T06:02:09.284Z,22.45
2022-07-30T06:04:51.791Z,22.55
2022-07-30T06:07:19.111Z,22.61
2022-07-30T06:09:46.076Z,22.61
2022-07-30T06:12:13.996Z,22.53
2022-07-30T06:14:41.811Z,22.51
2022-07-30T06:17:12.511Z,22.41
2022-07-30T06:20:01.352Z,22.36
2022-07-30T06:22:32.367Z,22.19
2022-07-30T06:25:06.378Z,22.08
2022-07-30T06:27:39.266Z,22.11
2022-07-30T06:30:09.451Z,22.23
2022-07-30T06:32:36.664Z,22.20
2022-07-30T06:35:05.065Z,22.10
2022-07-30T06:38:00.628Z,22.29
2022-07-30T06:40:22.846Z,22.25
2022-07-30T06:43:10.127Z,22.34
2022-07-30T06:46:03.558Z,22.34
2022-07-30T06:48:37.729Z,22.29
2022-07-30T06:51:06.068Z,22.28
2022-07-30T06:53:35.749Z,22.33
2022-07-30T06:56:13.465Z,22.29
2022-07-30T06:58:47.088Z,22.34
2022-07-30T07:01:32.657Z,22.43
2022-07-30T07:04:00.023Z,22.45
2022-07-30T07:06:27.058Z,22.51
2022-07-30T07:08:54.120Z,22.37
2022-07-30T07:11:28.771Z,22.42
2022-07-30T07:13:59.301Z,22.36
2022-07-30T07:16:34.237Z,22.25
2022-07-30T07:20:00.898Z,22.19
2022-07-30T07:22:03.613Z,22.22
2022-07-30T07:24:31.134Z,22.25
2022-07-30T07:27:05.062Z,22.29
2022-07-30T07:30:01.294Z,22.20
2022-07-30T07:32:33.553Z,22.01
2022-07-30T07:35:00.662Z,22.12
2022-07-30T07:37:28.494Z,22.26
2022-07-30T07:39:55.777Z,22.23
2022-07-30T07:42:23.582Z,22.29
2022-07-30T07:44:51.297Z,22.34
2022-07-30T07:47:18.703Z,22.39
2022-07-30T07:50:00.413Z,22.36
2022-07-30T07:52:27.399Z,22.23
2022-07-30T07:54:54.575Z,22.33
2022-07-30T07:57:23.566Z,22.23
2022-07-30T07:59:54.495Z,22.17
2022-07-30T08:02:27.175Z,22.11
2022-07-30T08:05:05.945Z,22.05
2022-07-30T08:07:43.260Z,22.16
2022-07-30T08:10:28.915Z,22.22
2022-07-30T08:13:49.293Z,22.12
2022-07-30T08:16:22.107Z,22.20
2022-07-30T08:19:15.133Z,22.24
2022-07-30T08:21:53.843Z,22.23
2022-07-30T08:24:22.394Z,22.09
2022-07-30T08:26:49.304Z,22.19
2022-07-30T08:29:17.302Z,22.27
2022-07-30T08:31:45.218Z,22.34
2022-07-30T08:34:13.943Z,22.36
2022-07-30T08:36:41.505Z,22.33
2022-07-30T08:39:08.961Z,22.46
2022-07-30T08:41:36.999Z,22.58
2022-07-30T08:44:12.963Z,22.66
2022-07-30T08:46:47.180Z,22.76
2022-07-30T08:49:38.241Z,22.88
2022-07-30T08:52:08.815Z,23.05
2022-07-30T08:54:42.079Z,23.16
2022-07-30T08:57:09.727Z,23.22
2022-07-30T09:00:00.026Z,23.28
2022-07-30T09:02:29.932Z,23.31
2022-07-30T09:05:02.092Z,23.26
2022-07-30T09:07:29.383Z,23.34
2022-07-30T09:09:56.892Z,23.30
2022-07-30T09:12:35.377Z,22.94
2022-07-30T09:15:11.525Z,22.66
2022-07-30T09:18:00.820Z,22.54
2022-07-30T09:20:33.741Z,22.62
2022-07-30T09:23:05.935Z,22.71
2022-07-30T09:25:41.607Z,22.78
2022-07-30T09:28:34.084Z,22.57
2022-07-30T09:31:22.570Z,22.59
2022-07-30T09:34:27.795Z,22.74
2022-07-30T09:37:20.903Z,22.84
2022-07-30T09:40:18.630Z,23.14
2022-07-30T09:43:17.966Z,22.99
2022-07-30T09:45:57.945Z,23.00
2022-07-30T09:48:27.920Z,23.08
2022-07-30T09:50:57.848Z,22.91
2022-07-30T09:53:25.293Z,23.02
2022-07-30T09:55:52.610Z,23.11
2022-07-30T09:58:27.004Z,23.37
2022-07-30T10:01:01.117Z,23.16
2022-07-30T10:03:43.744Z,23.24
2022-07-30T10:06:45.585Z,23.27
2022-07-30T10:09:37.245Z,23.37
2022-07-30T10:12:11.258Z,23.44
2022-07-30T10:14:46.532Z,23.50
2022-07-30T10:17:18.004Z,23.57
2022-07-30T10:19:55.342Z,23.68
2022-07-30T10:22:50.528Z,23.73
2022-07-30T10:25:27.874Z,23.76
2022-07-30T10:28:02.935Z,23.70
2022-07-30T10:30:33.223Z,23.51
2022-07-30T10:33:02.471Z,23.62
2022-07-30T10:35:34.737Z,23.62
2022-07-30T10:38:13.377Z,23.51
2022-07-30T10:41:22.124Z,23.58
2022-07-30T10:44:29.740Z,23.44
2022-07-30T10:47:07.438Z,23.68
2022-07-30T10:49:41.411Z,23.86
2022-07-30T10:52:12.077Z,23.96
2022-07-30T10:54:42.271Z,24.03
2022-07-30T10:57:22.592Z,23.87
2022-07-30T10:59:50.489Z,23.84
2022-07-30T11:02:19.722Z,24.01
2022-07-30T11:04:47.918Z,24.19
2022-07-30T11:07:29.626Z,24.18
2022-07-30T11:10:08.685Z,24.27
2022-07-30T11:12:43.883Z,24.34
2022-07-30T11:15:18.713Z,24.59
2022-07-30T11:18:12.268Z,24.68
2022-07-30T11:20:41.368Z,24.56
2022-07-30T11:23:37.526Z,24.64
2022-07-30T11:26:07.125Z,24.78
2022-07-30T11:28:42.356Z,24.52
2022-07-30T11:31:54.874Z,24.68
2022-07-30T11:34:25.718Z,24.41
2022-07-30T11:37:22.144Z,24.38
2022-07-30T11:39:58.773Z,24.66
2022-07-30T11:42:37.491Z,24.44
2022-07-30T11:45:16.891Z,24.51
2022-07-30T11:47:44.329Z,24.39
2022-07-30T11:50:19.183Z,24.57
2022-07-30T11:52:53.162Z,24.55
2022-07-30T11:55:40.976Z,24.68
2022-07-30T11:58:11.719Z,24.69
2022-07-30T12:00:48.360Z,24.75
2022-07-30T12:03:20.361Z,24.88
2022-07-30T12:05:51.148Z,24.53
2022-07-30T12:08:35.335Z,24.52
2022-07-30T12:11:03.677Z,24.41
2022-07-30T12:13:44.017Z,24.66
2022-07-30T12:16:16.721Z,24.55
2022-07-30T12:18:44.533Z,24.34
2022-07-30T12:21:12.907Z,24.44
2022-07-30T12:23:43.428Z,24.60
2022-07-30T12:26:29.483Z,24.56
2022-07-30T12:29:02.074Z,24.75
2022-07-30T12:31:29.494Z,24.79
2022-07-30T12:33:58.223Z,24.81
2022-07-30T12:36:32.454Z,25.16
2022-07-30T12:39:00.973Z,25.28
2022-07-30T12:41:44.996Z,24.85
2022-07-30T12:44:41.774Z,24.94
2022-07-30T12:47:26.203Z,24.85
2022-07-30T12:49:58.098Z,24.72
2022-07-30T12:52:31.295Z,24.82
2022-07-30T12:55:01.092Z,24.84
2022-07-30T12:57:28.416Z,25.36
2022-07-30T13:00:07.408Z,25.60
2022-07-30T13:02:35.380Z,25.60
2022-07-30T13:05:10.277Z,25.65
2022-07-30T13:07:57.327Z,25.36
2022-07-30T13:10:30.081Z,25.76
2022-07-30T13:12:58.545Z,26.18
2022-07-30T13:15:26.600Z,25.88
2022-07-30T13:17:53.703Z,26.40
2022-07-30T13:20:21.193Z,26.44
2022-07-30T13:22:48.212Z,26.21
2022-07-30T13:25:15.221Z,26.22
2022-07-30T13:27:42.212Z,26.00
2022-07-30T13:30:09.923Z,26.31
2022-07-30T13:32:36.909Z,26.88
2022-07-30T13:35:04.216Z,26.95
2022-07-30T13:37:38.243Z,27.26
2022-07-30T13:40:07.568Z,27.17
2022-07-30T13:42:34.973Z,26.93
2022-07-30T13:45:02.013Z,26.81
2022-07-30T13:47:29.382Z,26.87
2022-07-30T13:49:56.601Z,26.51
2022-07-30T13:52:23.451Z,26.79
2022-07-30T13:54:52.530Z,26.69
2022-07-30T13:57:19.638Z,26.67
2022-07-30T13:59:46.680Z,26.57
2022-07-30T14:02:13.802Z,26.48
2022-07-30T14:04:40.806Z,26.49
2022-07-30T14:07:07.774Z,26.63
2022-07-30T14:09:36.152Z,26.63
2022-07-30T14:12:14.377Z,26.19
2022-07-30T14:14:41.572Z,26.40
2022-07-30T14:17:08.611Z,26.31
2022-07-30T14:19:35.572Z,26.20
2022-07-30T14:22:02.621Z,26.12
2022-07-30T14:24:29.560Z,26.04
2022-07-30T14:26:58.308Z,26.01
2022-07-30T14:29:26.915Z,26.25
2022-07-30T14:31:54.411Z,26.58
2022-07-30T14:34:21.408Z,26.60
2022-07-30T14:36:48.387Z,26.65
2022-07-30T14:39:15.492Z,26.52
2022-07-30T14:41:43.407Z,26.51
2022-07-30T14:44:12.482Z,26.62
2022-07-30T14:46:52.224Z,26.68
2022-07-30T14:49:21.147Z,26.65
2022-07-30T14:51:48.315Z,26.57
2022-07-30T14:54:15.359Z,26.82
2022-07-30T14:56:42.289Z,26.90
2022-07-30T14:59:09.369Z,26.88
2022-07-30T15:01:36.410Z,26.96
2022-07-30T15:04:03.791Z,26.86
2022-07-30T15:06:30.748Z,26.66
2022-07-30T15:08:57.910Z,26.49
2022-07-30T15:11:25.650Z,26.34
2022-07-30T15:13:52.744Z,26.37
2022-07-30T15:16:20.269Z,26.38
2022-07-30T15:18:47.400Z,26.15
2022-07-30T15:21:14.621Z,26.14
2022-07-30T15:23:41.969Z,25.96
2022-07-30T15:26:09.097Z,25.95
2022-07-30T15:28:36.299Z,25.92
2022-07-30T15:31:03.656Z,25.94
2022-07-30T15:33:31.009Z,25.79
2022-07-30T15:36:03.637Z,25.91
2022-07-30T15:38:30.577Z,25.97
2022-07-30T15:40:57.614Z,25.94
2022-07-30T15:43:24.561Z,25.94
2022-07-30T15:45:56.543Z,25.91
2022-07-30T15:48:27.281Z,26.00
2022-07-30T15:51:05.003Z,26.02
2022-07-30T15:53:32.613Z,26.12
2022-07-30T15:56:00.128Z,26.10
2022-07-30T15:58:27.348Z,25.88
2022-07-30T16:00:54.441Z,25.80
2022-07-30T16:03:21.632Z,25.71
2022-07-30T16:05:51.790Z,25.61
2022-07-30T16:08:20.987Z,25.58
2022-07-30T16:11:07.934Z,25.69
2022-07-30T16:13:37.923Z,25.61
2022-07-30T16:16:05.241Z,25.64
2022-07-30T16:18:32.264Z,25.79
2022-07-30T16:21:01.297Z,25.92
2022-07-30T16:23:36.449Z,26.08
2022-07-30T16:26:04.212Z,26.12
2022-07-30T16:28:31.489Z,26.10
2022-07-30T16:30:58.620Z,25.94
2022-07-30T16:33:25.665Z,25.94
2022-07-30T16:35:52.644Z,25.95
2022-07-30T16:38:21.016Z,25.90
2022-07-30T16:40:48.106Z,25.78
2022-07-30T16:43:15.564Z,25.50
2022-07-30T16:45:43.880Z,25.47
2022-07-30T16:48:11.589Z,25.52
2022-07-30T16:50:40.811Z,25.60
2022-07-30T16:53:13.460Z,25.62
2022-07-30T16:55:41.992Z,25.57
2022-07-30T16:58:09.375Z,25.60
2022-07-30T17:00:36.469Z,25.61
2022-07-30T17:03:03.859Z,25.61
2022-07-30T17:05:31.029Z,25.56
2022-07-30T17:07:58.167Z,25.64
2022-07-30T17:10:26.503Z,25.54
2022-07-30T17:12:57.120Z,25.53
2022-07-30T17:15:32.605Z,25.47
2022-07-30T17:18:03.602Z,25.39
2022-07-30T17:20:32.360Z,25.33
2022-07-30T17:22:59.384Z,25.18
2022-07-30T17:25:30.187Z,25.17
2022-07-30T17:27:58.995Z,25.33
2022-07-30T17:30:29.968Z,25.35
2022-07-30T17:32:57.428Z,25.13
2022-07-30T17:35:24.947Z,25.05
2022-07-30T17:37:52.003Z,25.04
2022-07-30T17:40:28.771Z,25.16
2022-07-30T17:43:08.437Z,25.11
2022-07-30T17:45:37.064Z,25.22
2022-07-30T17:48:05.428Z,25.20
2022-07-30T17:50:33.643Z,25.24
2022-07-30T17:53:03.263Z,25.14
2022-07-30T17:55:31.734Z,24.98
2022-07-30T17:57:58.799Z,24.98
2022-07-30T18:00:25.970Z,24.98
2022-07-30T18:02:53.134Z,24.93
2022-07-30T18:05:20.284Z,24.93
2022-07-30T18:07:47.241Z,25.00
2022-07-30T18:10:14.224Z,25.02
2022-07-30T18:12:45.444Z,24.89
2022-07-30T18:15:15.885Z,24.90
2022-07-30T18:17:42.710Z,24.91
2022-07-30T18:20:10.196Z,24.85
2022-07-30T18:22:37.132Z,24.70
2022-07-30T18:25:07.457Z,24.67
2022-07-30T18:27:34.774Z,24.59
2022-07-30T18:30:01.762Z,24.66
2022-07-30T18:32:28.752Z,24.63
2022-07-30T18:34:55.798Z,24.63
2022-07-30T18:37:22.763Z,24.61
2022-07-30T18:39:49.694Z,24.52
2022-07-30T18:42:16.996Z,24.46
2022-07-30T18:44:44.063Z,24.31
2022-07-30T18:47:11.013Z,24.09
2022-07-30T18:49:38.280Z,24.04
2022-07-30T18:52:07.657Z,24.06
2022-07-30T18:54:36.025Z,24.02
2022-07-30T18:57:03.489Z,23.92
2022-07-30T18:59:30.694Z,23.75
2022-07-30T19:01:57.583Z,23.77
2022-07-30T19:04:24.912Z,23.78
2022-07-30T19:06:51.857Z,23.72
2022-07-30T19:09:18.923Z,23.66
2022-07-30T19:11:46.553Z,23.58
2022-07-30T19:14:14.519Z,23.53
2022-07-30T19:16:42.703Z,23.47
2022-07-30T19:19:12.985Z,23.32
2022-07-30T19:21:41.433Z,23.19
2022-07-30T19:24:10.009Z,23.14
2022-07-30T19:26:39.859Z,23.12
2022-07-30T19:29:08.145Z,23.09
2022-07-30T19:31:35.926Z,23.07
2022-07-30T19:34:03.147Z,23.04
2022-07-30T19:36:30.558Z,23.01
2022-07-30T19:39:06.841Z,22.94
2022-07-30T19:41:40.919Z,22.84
2022-07-30T19:44:09.220Z,22.78
2022-07-30T19:46:36.646Z,22.73
2022-07-30T19:49:06.773Z,22.72
2022-07-30T19:52:10.370Z,22.68
2022-07-30T19:54:21.111Z,22.62
2022-07-30T19:56:48.685Z,22.60
2022-07-30T19:59:15.844Z,22.51
2022-07-30T20:01:47.835Z,22.36
2022-07-30T20:04:19.702Z,22.40
2022-07-30T20:06:49.832Z,22.28
2022-07-30T20:09:17.316Z,22.09
2022-07-30T20:11:44.521Z,22.04
2022-07-30T20:14:11.811Z,22.11
2022-07-30T20:16:43.402Z,22.08
2022-07-30T20:19:15.790Z,22.14
2022-07-30T20:22:06.875Z,22.17
2022-07-30T20:24:30.885Z,22.14
2022-07-30T20:26:58.054Z,22.01
2022-07-30T20:29:25.133Z,21.83
2022-07-30T20:31:52.161Z,21.73
2022-07-30T20:34:25.748Z,21.64
2022-07-30T20:36:53.935Z,21.56
2022-07-30T20:39:25.233Z,21.53
2022-07-30T20:42:08.099Z,21.43
2022-07-30T20:44:36.892Z,21.29
2022-07-30T20:47:08.140Z,21.29
2022-07-30T20:49:36.225Z,21.21
2022-07-30T20:52:04.970Z,21.25
2022-07-30T20:54:32.552Z,21.30
2022-07-30T20:57:00.299Z,21.40
2022-07-30T20:59:29.112Z,21.43
2022-07-30T21:01:56.023Z,21.37
2022-07-30T21:04:23.912Z,21.35
2022-07-30T21:06:53.317Z,21.25
2022-07-30T21:09:20.487Z,21.23
2022-07-30T21:11:50.392Z,21.12
2022-07-30T21:14:18.924Z,21.10
2022-07-30T21:16:47.354Z,21.12
2022-07-30T21:19:16.643Z,21.10
2022-07-30T21:21:48.286Z,21.11
2022-07-30T21:24:19.613Z,21.04
2022-07-30T21:26:49.669Z,20.99
2022-07-30T21:29:18.027Z,20.85
2022-07-30T21:32:08.794Z,20.85
2022-07-30T21:34:40.222Z,20.83
2022-07-30T21:37:09.511Z,20.84
2022-07-30T21:39:39.822Z,20.81
2022-07-30T21:42:08.994Z,20.77
2022-07-30T21:44:37.694Z,20.74
2022-07-30T21:47:05.699Z,20.70
2022-07-30T21:49:38.346Z,20.60
2022-07-30T21:52:07.145Z,20.62
2022-07-30T21:54:45.194Z,20.63
2022-07-30T21:57:23.275Z,20.59
2022-07-30T21:59:55.031Z,20.55
2022-07-30T22:02:22.662Z,20.52
2022-07-30T22:04:51.578Z,20.47
2022-07-30T22:07:18.648Z,20.47
2022-07-30T22:09:49.130Z,20.49
2022-07-30T22:12:18.338Z,20.46
2022-07-30T22:14:46.910Z,20.41
2022-07-30T22:17:23.932Z,20.39
2022-07-30T22:20:08.808Z,20.35
2022-07-30T22:22:38.895Z,20.28
2022-07-30T22:25:09.615Z,20.28
2022-07-30T22:27:56.756Z,20.23
2022-07-30T22:30:27.001Z,20.17
2022-07-30T22:32:55.693Z,20.10
2022-07-30T22:35:33.442Z,20.08
2022-07-30T22:38:02.420Z,20.03
2022-07-30T22:40:29.749Z,20.05
2022-07-30T22:42:56.821Z,20.08
2022-07-30T22:45:46.826Z,20.04
2022-07-30T22:48:11.842Z,20.03
2022-07-30T22:50:40.345Z,19.97
2022-07-30T22:55:56.119Z,19.87
2022-07-30T22:58:26.446Z,19.81
2022-07-30T23:00:54.676Z,19.81
2022-07-30T23:03:21.728Z,19.79
2022-07-30T23:05:56.686Z,19.78
2022-07-30T23:08:29.382Z,19.75
2022-07-30T23:11:14.807Z,19.74
2022-07-30T23:12:30.688Z,19.91
2022-07-30T23:13:42.043Z,19.59
2022-07-30T23:16:10.832Z,19.59
2022-07-30T23:18:38.065Z,19.57
2022-07-30T23:21:05.285Z,19.47
2022-07-30T23:23:34.216Z,19.40
2022-07-30T23:26:03.439Z,19.06
2022-07-30T23:28:30.721Z,18.97
2022-07-30T23:30:58.075Z,19.04
2022-07-30T23:33:25.200Z,19.09
2022-07-30T23:35:52.675Z,19.11
2022-07-30T23:38:19.521Z,19.12
2022-07-30T23:40:47.504Z,19.11
2022-07-30T23:43:15.614Z,19.09
2022-07-30T23:45:42.880Z,19.02
2022-07-30T23:48:10.482Z,18.97
2022-07-30T23:50:38.162Z,18.95
2022-07-30T23:53:05.530Z,19.02
2022-07-30T23:55:32.910Z,19.04
2022-07-30T23:58:00.384Z,18.91
